sensor_id;sensor_type;location;lat;lon;timestamp;P1;durP1;ratioP1;P2;durP2;ratioP2
1454;SDS011;721;48.168;12.818;2022-07-29T00:00:06;4.40;;;4.10;;
1454;SDS011;721;48.168;12.818;2022-07-29T00:02:34;4.37;;;4.17;;
1454;SDS011;721;48.168;12.818;2022-07-29T00:05:01;4.40;;;4.00;;
1454;SDS011;721;48.168;12.818;2022-07-29T00:07:29;3.70;;;3.40;;
1454;SDS011;721;48.168;12.818;2022-07-29T00:09:56;4.00;;;3.53;;
1454;SDS011;721;48.168;12.818;2022-07-29T00:12:23;4.10;;;3.70;;
1454;SDS011;721;48.168;12.818;2022-07-29T00:14:54;3.53;;;3.27;;
1454;SDS011;721;48.168;12.818;2022-07-29T00:17:21;3.47;;;3.20;;
1454;SDS011;721;48.168;12.818;2022-07-29T00:19:48;4.63;;;3.17;;
1454;SDS011;721;48.168;12.818;2022-07-29T00:22:15;4.97;;;2.80;;
1454;SDS011;721;48.168;12.818;2022-07-29T00:24:42;3.30;;;3.00;;
1454;SDS011;721;48.168;12.818;2022-07-29T00:27:09;3.40;;;3.20;;
1454;SDS011;721;48.168;12.818;2022-07-29T00:29:36;3.10;;;2.90;;
1454;SDS011;721;48.168;12.818;2022-07-29T00:32:04;3.43;;;3.23;;
1454;SDS011;721;48.168;12.818;2022-07-29T00:34:31;3.40;;;2.93;;
1454;SDS011;721;48.168;12.818;2022-07-29T00:37:16;3.07;;;2.87;;
1454;SDS011;721;48.168;12.818;2022-07-29T00:39:42;2.43;;;2.23;;
1454;SDS011;721;48.168;12.818;2022-07-29T00:42:09;2.70;;;2.50;;
1454;SDS011;721;48.168;12.818;2022-07-29T00:44:36;3.10;;;2.80;;
1454;SDS011;721;48.168;12.818;2022-07-29T00:47:05;2.70;;;2.40;;
1454;SDS011;721;48.168;12.818;2022-07-29T00:49:32;2.33;;;2.23;;
1454;SDS011;721;48.168;12.818;2022-07-29T00:52:00;2.80;;;2.60;;
1454;SDS011;721;48.168;12.818;2022-07-29T00:54:27;2.40;;;2.20;;
1454;SDS011;721;48.168;12.818;2022-07-29T00:56:54;2.70;;;2.50;;
1454;SDS011;721;48.168;12.818;2022-07-29T00:59:22;3.90;;;2.50;;
1454;SDS011;721;48.168;12.818;2022-07-29T01:01:49;2.60;;;2.40;;
1454;SDS011;721;48.168;12.818;2022-07-29T01:04:18;2.57;;;2.30;;
1454;SDS011;721;48.168;12.818;2022-07-29T01:06:45;2.20;;;2.10;;
1454;SDS011;721;48.168;12.818;2022-07-29T01:09:13;2.20;;;2.10;;
1454;SDS011;721;48.168;12.818;2022-07-29T01:11:40;2.73;;;2.53;;
1454;SDS011;721;48.168;12.818;2022-07-29T01:14:07;3.70;;;3.10;;
1454;SDS011;721;48.168;12.818;2022-07-29T01:16:36;2.57;;;2.37;;
1454;SDS011;721;48.168;12.818;2022-07-29T01:19:17;2.23;;;2.10;;
1454;SDS011;721;48.168;12.818;2022-07-29T01:21:57;2.60;;;2.40;;
1454;SDS011;721;48.168;12.818;2022-07-29T01:24:30;2.30;;;2.20;;
1454;SDS011;721;48.168;12.818;2022-07-29T01:27:09;2.47;;;2.27;;
1454;SDS011;721;48.168;12.818;2022-07-29T01:29:53;2.87;;;2.53;;
1454;SDS011;721;48.168;12.818;2022-07-29T01:32:24;2.40;;;2.27;;
1454;SDS011;721;48.168;12.818;2022-07-29T01:34:54;3.47;;;2.37;;
1454;SDS011;721;48.168;12.818;2022-07-29T01:37:25;2.70;;;2.50;;
1454;SDS011;721;48.168;12.818;2022-07-29T01:39:55;1.97;;;1.87;;
1454;SDS011;721;48.168;12.818;2022-07-29T01:42:26;1.97;;;1.87;;
1454;SDS011;721;48.168;12.818;2022-07-29T01:44:59;2.43;;;2.23;;
1454;SDS011;721;48.168;12.818;2022-07-29T01:47:31;2.50;;;2.40;;
1454;SDS011;721;48.168;12.818;2022-07-29T01:50:03;3.03;;;1.83;;
1454;SDS011;721;48.168;12.818;2022-07-29T01:52:36;1.70;;;1.60;;
1454;SDS011;721;48.168;12.818;2022-07-29T01:55:09;1.80;;;1.70;;
1454;SDS011;721;48.168;12.818;2022-07-29T01:57:40;2.20;;;2.00;;
1454;SDS011;721;48.168;12.818;2022-07-29T02:00:11;1.80;;;1.70;;
1454;SDS011;721;48.168;12.818;2022-07-29T02:02:40;2.27;;;2.10;;
1454;SDS011;721;48.168;12.818;2022-07-29T02:05:10;2.13;;;2.03;;
1454;SDS011;721;48.168;12.818;2022-07-29T02:07:40;1.80;;;1.70;;
1454;SDS011;721;48.168;12.818;2022-07-29T02:10:08;2.33;;;2.23;;
1454;SDS011;721;48.168;12.818;2022-07-29T02:12:37;2.93;;;2.73;;
1454;SDS011;721;48.168;12.818;2022-07-29T02:15:05;3.43;;;3.13;;
1454;SDS011;721;48.168;12.818;2022-07-29T02:17:35;3.33;;;2.70;;
1454;SDS011;721;48.168;12.818;2022-07-29T02:20:08;3.13;;;2.63;;
1454;SDS011;721;48.168;12.818;2022-07-29T02:22:37;3.37;;;3.07;;
1454;SDS011;721;48.168;12.818;2022-07-29T02:25:05;4.17;;;3.73;;
1454;SDS011;721;48.168;12.818;2022-07-29T02:27:34;3.00;;;2.70;;
1454;SDS011;721;48.168;12.818;2022-07-29T02:30:02;3.50;;;3.20;;
1454;SDS011;721;48.168;12.818;2022-07-29T02:32:32;4.40;;;3.93;;
1454;SDS011;721;48.168;12.818;2022-07-29T02:35:03;2.83;;;2.63;;
1454;SDS011;721;48.168;12.818;2022-07-29T02:37:32;3.17;;;2.87;;
1454;SDS011;721;48.168;12.818;2022-07-29T02:39:59;3.00;;;2.70;;
1454;SDS011;721;48.168;12.818;2022-07-29T02:42:27;2.60;;;2.40;;
1454;SDS011;721;48.168;12.818;2022-07-29T02:44:55;2.03;;;1.93;;
1454;SDS011;721;48.168;12.818;2022-07-29T02:47:23;2.87;;;2.63;;
1454;SDS011;721;48.168;12.818;2022-07-29T02:50:00;5.87;;;3.20;;
1454;SDS011;721;48.168;12.818;2022-07-29T02:52:33;2.67;;;2.47;;
1454;SDS011;721;48.168;12.818;2022-07-29T02:55:06;2.40;;;2.30;;
1454;SDS011;721;48.168;12.818;2022-07-29T02:57:41;2.97;;;2.70;;
1454;SDS011;721;48.168;12.818;2022-07-29T03:00:10;3.57;;;3.07;;
1454;SDS011;721;48.168;12.818;2022-07-29T03:02:40;3.03;;;2.73;;
1454;SDS011;721;48.168;12.818;2022-07-29T03:05:14;2.67;;;2.47;;
1454;SDS011;721;48.168;12.818;2022-07-29T03:07:45;3.17;;;2.97;;
1454;SDS011;721;48.168;12.818;2022-07-29T03:10:13;2.40;;;2.30;;
1454;SDS011;721;48.168;12.818;2022-07-29T03:12:40;4.30;;;2.93;;
1454;SDS011;721;48.168;12.818;2022-07-29T03:15:09;3.20;;;2.73;;
1454;SDS011;721;48.168;12.818;2022-07-29T03:17:36;2.97;;;2.70;;
1454;SDS011;721;48.168;12.818;2022-07-29T03:20:04;2.80;;;2.60;;
1454;SDS011;721;48.168;12.818;2022-07-29T03:22:34;3.00;;;2.73;;
1454;SDS011;721;48.168;12.818;2022-07-29T03:25:08;2.87;;;2.67;;
1454;SDS011;721;48.168;12.818;2022-07-29T03:27:35;2.57;;;2.37;;
1454;SDS011;721;48.168;12.818;2022-07-29T03:30:03;2.40;;;2.20;;
1454;SDS011;721;48.168;12.818;2022-07-29T03:32:30;2.27;;;2.17;;
1454;SDS011;721;48.168;12.818;2022-07-29T03:34:57;2.63;;;2.40;;
1454;SDS011;721;48.168;12.818;2022-07-29T03:37:24;3.47;;;2.57;;
1454;SDS011;721;48.168;12.818;2022-07-29T03:39:52;2.37;;;2.17;;
1454;SDS011;721;48.168;12.818;2022-07-29T03:42:20;3.23;;;2.93;;
1454;SDS011;721;48.168;12.818;2022-07-29T03:44:51;3.03;;;2.83;;
1454;SDS011;721;48.168;12.818;2022-07-29T03:47:20;2.70;;;2.50;;
1454;SDS011;721;48.168;12.818;2022-07-29T03:49:52;2.63;;;2.43;;
1454;SDS011;721;48.168;12.818;2022-07-29T03:52:22;2.80;;;2.60;;
1454;SDS011;721;48.168;12.818;2022-07-29T03:54:49;3.10;;;2.80;;
1454;SDS011;721;48.168;12.818;2022-07-29T03:57:17;2.30;;;2.10;;
1454;SDS011;721;48.168;12.818;2022-07-29T03:59:46;2.63;;;2.40;;
1454;SDS011;721;48.168;12.818;2022-07-29T04:02:14;2.80;;;2.60;;
1454;SDS011;721;48.168;12.818;2022-07-29T04:04:40;2.93;;;2.70;;
1454;SDS011;721;48.168;12.818;2022-07-29T04:07:08;2.37;;;2.17;;
1454;SDS011;721;48.168;12.818;2022-07-29T04:09:38;2.40;;;2.30;;
1454;SDS011;721;48.168;12.818;2022-07-29T04:12:05;3.00;;;2.80;;
1454;SDS011;721;48.168;12.818;2022-07-29T04:14:34;3.13;;;2.93;;
1454;SDS011;721;48.168;12.818;2022-07-29T04:17:01;2.70;;;2.50;;
1454;SDS011;721;48.168;12.818;2022-07-29T04:19:28;2.80;;;2.70;;
1454;SDS011;721;48.168;12.818;2022-07-29T04:21:56;2.47;;;2.37;;
1454;SDS011;721;48.168;12.818;2022-07-29T04:24:23;2.77;;;2.57;;
1454;SDS011;721;48.168;12.818;2022-07-29T04:26:50;2.67;;;2.30;;
1454;SDS011;721;48.168;12.818;2022-07-29T04:29:16;3.00;;;2.80;;
1454;SDS011;721;48.168;12.818;2022-07-29T04:31:45;3.63;;;2.43;;
1454;SDS011;721;48.168;12.818;2022-07-29T04:34:12;2.70;;;2.50;;
1454;SDS011;721;48.168;12.818;2022-07-29T04:36:38;2.77;;;2.53;;
1454;SDS011;721;48.168;12.818;2022-07-29T04:39:05;2.63;;;2.43;;
1454;SDS011;721;48.168;12.818;2022-07-29T04:41:32;3.23;;;2.60;;
1454;SDS011;721;48.168;12.818;2022-07-29T04:43:59;4.37;;;2.73;;
1454;SDS011;721;48.168;12.818;2022-07-29T04:46:30;3.37;;;3.07;;
1454;SDS011;721;48.168;12.818;2022-07-29T04:48:58;2.77;;;2.60;;
1454;SDS011;721;48.168;12.818;2022-07-29T04:51:24;2.30;;;2.20;;
1454;SDS011;721;48.168;12.818;2022-07-29T04:53:51;2.77;;;2.57;;
1454;SDS011;721;48.168;12.818;2022-07-29T04:56:18;2.53;;;2.43;;
1454;SDS011;721;48.168;12.818;2022-07-29T04:58:45;2.60;;;2.40;;
1454;SDS011;721;48.168;12.818;2022-07-29T05:01:12;2.57;;;2.37;;
1454;SDS011;721;48.168;12.818;2022-07-29T05:03:40;3.40;;;3.20;;
1454;SDS011;721;48.168;12.818;2022-07-29T05:06:08;2.67;;;2.27;;
1454;SDS011;721;48.168;12.818;2022-07-29T05:08:35;3.20;;;3.00;;
1454;SDS011;721;48.168;12.818;2022-07-29T05:11:02;2.97;;;2.77;;
1454;SDS011;721;48.168;12.818;2022-07-29T05:13:29;3.20;;;3.00;;
1454;SDS011;721;48.168;12.818;2022-07-29T05:15:56;2.83;;;2.60;;
1454;SDS011;721;48.168;12.818;2022-07-29T05:18:24;2.60;;;2.40;;
1454;SDS011;721;48.168;12.818;2022-07-29T05:20:50;2.90;;;2.63;;
1454;SDS011;721;48.168;12.818;2022-07-29T05:23:19;2.63;;;2.43;;
1454;SDS011;721;48.168;12.818;2022-07-29T05:25:45;2.83;;;2.53;;
1454;SDS011;721;48.168;12.818;2022-07-29T05:28:12;2.53;;;2.33;;
1454;SDS011;721;48.168;12.818;2022-07-29T05:30:40;3.03;;;2.50;;
1454;SDS011;721;48.168;12.818;2022-07-29T05:33:07;2.83;;;2.53;;
1454;SDS011;721;48.168;12.818;2022-07-29T05:35:33;3.00;;;2.80;;
1454;SDS011;721;48.168;12.818;2022-07-29T05:38:02;3.10;;;2.50;;
1454;SDS011;721;48.168;12.818;2022-07-29T05:40:30;2.90;;;2.70;;
1454;SDS011;721;48.168;12.818;2022-07-29T05:42:57;4.93;;;4.07;;
1454;SDS011;721;48.168;12.818;2022-07-29T05:45:24;3.70;;;3.30;;
1454;SDS011;721;48.168;12.818;2022-07-29T05:47:50;4.00;;;3.53;;
1454;SDS011;721;48.168;12.818;2022-07-29T05:50:17;4.80;;;3.50;;
1454;SDS011;721;48.168;12.818;2022-07-29T05:52:44;5.60;;;2.80;;
1454;SDS011;721;48.168;12.818;2022-07-29T05:55:11;3.20;;;2.90;;
1454;SDS011;721;48.168;12.818;2022-07-29T05:57:39;2.90;;;2.70;;
1454;SDS011;721;48.168;12.818;2022-07-29T06:00:08;3.20;;;3.00;;
1454;SDS011;721;48.168;12.818;2022-07-29T06:02:36;2.20;;;1.97;;
1454;SDS011;721;48.168;12.818;2022-07-29T06:05:03;3.37;;;3.17;;
1454;SDS011;721;48.168;12.818;2022-07-29T06:07:30;2.70;;;2.50;;
1454;SDS011;721;48.168;12.818;2022-07-29T06:09:57;3.13;;;2.93;;
1454;SDS011;721;48.168;12.818;2022-07-29T06:12:24;2.60;;;2.50;;
1454;SDS011;721;48.168;12.818;2022-07-29T06:14:52;2.60;;;2.40;;
1454;SDS011;721;48.168;12.818;2022-07-29T06:17:19;3.33;;;3.13;;
1454;SDS011;721;48.168;12.818;2022-07-29T06:19:46;2.73;;;2.53;;
1454;SDS011;721;48.168;12.818;2022-07-29T06:22:14;3.70;;;3.43;;
1454;SDS011;721;48.168;12.818;2022-07-29T06:24:41;2.83;;;2.63;;
1454;SDS011;721;48.168;12.818;2022-07-29T06:27:09;3.60;;;2.80;;
1454;SDS011;721;48.168;12.818;2022-07-29T06:29:35;3.53;;;3.20;;
1454;SDS011;721;48.168;12.818;2022-07-29T06:32:04;7.53;;;2.63;;
1454;SDS011;721;48.168;12.818;2022-07-29T06:34:31;3.60;;;3.30;;
1454;SDS011;721;48.168;12.818;2022-07-29T06:36:58;4.67;;;2.93;;
1454;SDS011;721;48.168;12.818;2022-07-29T06:39:25;3.40;;;3.10;;
1454;SDS011;721;48.168;12.818;2022-07-29T06:41:52;3.53;;;3.03;;
1454;SDS011;721;48.168;12.818;2022-07-29T06:44:19;5.10;;;3.77;;
1454;SDS011;721;48.168;12.818;2022-07-29T06:46:46;2.93;;;2.70;;
1454;SDS011;721;48.168;12.818;2022-07-29T06:49:16;4.13;;;2.80;;
1454;SDS011;721;48.168;12.818;2022-07-29T06:51:43;2.57;;;2.33;;
1454;SDS011;721;48.168;12.818;2022-07-29T06:54:09;2.70;;;2.50;;
1454;SDS011;721;48.168;12.818;2022-07-29T06:56:36;2.63;;;2.43;;
1454;SDS011;721;48.168;12.818;2022-07-29T06:59:06;3.23;;;2.50;;
1454;SDS011;721;48.168;12.818;2022-07-29T07:01:34;3.13;;;2.73;;
1454;SDS011;721;48.168;12.818;2022-07-29T07:04:02;2.63;;;2.43;;
1454;SDS011;721;48.168;12.818;2022-07-29T07:06:30;4.13;;;2.17;;
1454;SDS011;721;48.168;12.818;2022-07-29T07:08:57;2.73;;;2.53;;
1454;SDS011;721;48.168;12.818;2022-07-29T07:11:24;2.73;;;2.53;;
1454;SDS011;721;48.168;12.818;2022-07-29T07:13:50;3.13;;;2.93;;
1454;SDS011;721;48.168;12.818;2022-07-29T07:16:17;4.67;;;3.07;;
1454;SDS011;721;48.168;12.818;2022-07-29T07:18:44;2.73;;;2.30;;
1454;SDS011;721;48.168;12.818;2022-07-29T07:21:11;2.43;;;2.23;;
1454;SDS011;721;48.168;12.818;2022-07-29T07:23:39;2.60;;;2.33;;
1454;SDS011;721;48.168;12.818;2022-07-29T07:26:06;4.50;;;2.87;;
1454;SDS011;721;48.168;12.818;2022-07-29T07:28:32;2.83;;;2.70;;
1454;SDS011;721;48.168;12.818;2022-07-29T07:30:59;3.60;;;2.30;;
1454;SDS011;721;48.168;12.818;2022-07-29T07:33:26;2.63;;;2.47;;
1454;SDS011;721;48.168;12.818;2022-07-29T07:35:53;3.20;;;2.43;;
1454;SDS011;721;48.168;12.818;2022-07-29T07:38:20;3.27;;;2.17;;
1454;SDS011;721;48.168;12.818;2022-07-29T07:40:48;2.07;;;1.97;;
1454;SDS011;721;48.168;12.818;2022-07-29T07:43:14;4.80;;;2.10;;
1454;SDS011;721;48.168;12.818;2022-07-29T07:45:41;2.60;;;2.40;;
1454;SDS011;721;48.168;12.818;2022-07-29T07:48:08;2.50;;;2.30;;
1454;SDS011;721;48.168;12.818;2022-07-29T07:50:35;4.70;;;2.07;;
1454;SDS011;721;48.168;12.818;2022-07-29T07:53:02;3.27;;;2.40;;
1454;SDS011;721;48.168;12.818;2022-07-29T07:55:29;3.33;;;2.60;;
1454;SDS011;721;48.168;12.818;2022-07-29T07:57:57;3.90;;;2.43;;
1454;SDS011;721;48.168;12.818;2022-07-29T08:00:24;5.57;;;2.50;;
1454;SDS011;721;48.168;12.818;2022-07-29T08:02:51;2.10;;;2.00;;
1454;SDS011;721;48.168;12.818;2022-07-29T08:05:18;3.40;;;2.43;;
1454;SDS011;721;48.168;12.818;2022-07-29T08:07:45;2.87;;;2.67;;
1454;SDS011;721;48.168;12.818;2022-07-29T08:10:13;2.60;;;2.40;;
1454;SDS011;721;48.168;12.818;2022-07-29T08:12:40;2.53;;;2.33;;
1454;SDS011;721;48.168;12.818;2022-07-29T08:15:08;2.20;;;2.00;;
1454;SDS011;721;48.168;12.818;2022-07-29T08:17:35;3.03;;;2.03;;
1454;SDS011;721;48.168;12.818;2022-07-29T08:20:02;2.67;;;2.33;;
1454;SDS011;721;48.168;12.818;2022-07-29T08:22:30;2.70;;;2.50;;
1454;SDS011;721;48.168;12.818;2022-07-29T08:24:56;2.40;;;2.17;;
1454;SDS011;721;48.168;12.818;2022-07-29T08:27:23;2.40;;;2.20;;
1454;SDS011;721;48.168;12.818;2022-07-29T08:29:51;2.60;;;2.47;;
1454;SDS011;721;48.168;12.818;2022-07-29T08:32:19;1.87;;;1.77;;
1454;SDS011;721;48.168;12.818;2022-07-29T08:34:46;2.03;;;1.83;;
1454;SDS011;721;48.168;12.818;2022-07-29T08:37:13;2.30;;;2.20;;
1454;SDS011;721;48.168;12.818;2022-07-29T08:39:39;2.37;;;2.27;;
1454;SDS011;721;48.168;12.818;2022-07-29T08:42:06;2.40;;;2.20;;
1454;SDS011;721;48.168;12.818;2022-07-29T08:44:34;2.40;;;1.90;;
1454;SDS011;721;48.168;12.818;2022-07-29T08:47:02;2.20;;;1.70;;
1454;SDS011;721;48.168;12.818;2022-07-29T08:49:30;2.03;;;1.90;;
1454;SDS011;721;48.168;12.818;2022-07-29T08:51:59;1.87;;;1.77;;
1454;SDS011;721;48.168;12.818;2022-07-29T08:54:26;2.37;;;2.17;;
1454;SDS011;721;48.168;12.818;2022-07-29T08:56:54;1.67;;;1.57;;
1454;SDS011;721;48.168;12.818;2022-07-29T08:59:22;6.63;;;3.30;;
1454;SDS011;721;48.168;12.818;2022-07-29T09:01:52;1.80;;;1.70;;
1454;SDS011;721;48.168;12.818;2022-07-29T09:04:20;2.33;;;2.03;;
1454;SDS011;721;48.168;12.818;2022-07-29T09:06:52;2.20;;;1.70;;
1454;SDS011;721;48.168;12.818;2022-07-29T09:09:23;1.83;;;1.73;;
1454;SDS011;721;48.168;12.818;2022-07-29T09:11:49;2.10;;;1.90;;
1454;SDS011;721;48.168;12.818;2022-07-29T09:14:18;2.13;;;1.80;;
1454;SDS011;721;48.168;12.818;2022-07-29T09:16:49;3.33;;;2.33;;
1454;SDS011;721;48.168;12.818;2022-07-29T09:19:25;3.93;;;1.87;;
1454;SDS011;721;48.168;12.818;2022-07-29T09:21:55;1.70;;;1.57;;
1454;SDS011;721;48.168;12.818;2022-07-29T09:24:23;1.50;;;1.40;;
1454;SDS011;721;48.168;12.818;2022-07-29T09:26:51;1.87;;;1.73;;
1454;SDS011;721;48.168;12.818;2022-07-29T09:29:19;2.30;;;2.10;;
1454;SDS011;721;48.168;12.818;2022-07-29T09:31:49;1.90;;;1.70;;
1454;SDS011;721;48.168;12.818;2022-07-29T09:34:20;1.50;;;1.40;;
1454;SDS011;721;48.168;12.818;2022-07-29T09:36:49;1.50;;;1.27;;
1454;SDS011;721;48.168;12.818;2022-07-29T09:39:27;1.77;;;1.67;;
1454;SDS011;721;48.168;12.818;2022-07-29T09:41:56;1.77;;;1.50;;
1454;SDS011;721;48.168;12.818;2022-07-29T09:44:24;2.00;;;1.90;;
1454;SDS011;721;48.168;12.818;2022-07-29T09:46:53;2.13;;;2.00;;
1454;SDS011;721;48.168;12.818;2022-07-29T09:49:20;2.10;;;1.87;;
1454;SDS011;721;48.168;12.818;2022-07-29T09:51:47;3.10;;;2.00;;
1454;SDS011;721;48.168;12.818;2022-07-29T09:54:24;2.10;;;1.90;;
1454;SDS011;721;48.168;12.818;2022-07-29T09:56:54;2.30;;;2.20;;
1454;SDS011;721;48.168;12.818;2022-07-29T09:59:21;1.80;;;1.70;;
1454;SDS011;721;48.168;12.818;2022-07-29T10:01:51;2.00;;;1.90;;
1454;SDS011;721;48.168;12.818;2022-07-29T10:04:18;2.30;;;2.10;;
1454;SDS011;721;48.168;12.818;2022-07-29T10:06:55;3.10;;;2.20;;
1454;SDS011;721;48.168;12.818;2022-07-29T10:09:23;2.23;;;1.90;;
1454;SDS011;721;48.168;12.818;2022-07-29T10:12:03;1.77;;;1.67;;
1454;SDS011;721;48.168;12.818;2022-07-29T10:14:31;3.93;;;1.70;;
1454;SDS011;721;48.168;12.818;2022-07-29T10:17:00;1.90;;;1.80;;
1454;SDS011;721;48.168;12.818;2022-07-29T10:19:28;1.77;;;1.67;;
1454;SDS011;721;48.168;12.818;2022-07-29T10:21:55;1.73;;;1.63;;
1454;SDS011;721;48.168;12.818;2022-07-29T10:24:24;3.87;;;1.90;;
1454;SDS011;721;48.168;12.818;2022-07-29T10:26:52;1.80;;;1.70;;
1454;SDS011;721;48.168;12.818;2022-07-29T10:29:22;2.10;;;2.00;;
1454;SDS011;721;48.168;12.818;2022-07-29T10:31:52;4.93;;;2.17;;
1454;SDS011;721;48.168;12.818;2022-07-29T10:34:35;2.17;;;1.80;;
1454;SDS011;721;48.168;12.818;2022-07-29T10:37:18;2.50;;;2.00;;
1454;SDS011;721;48.168;12.818;2022-07-29T10:39:54;2.40;;;2.20;;
1454;SDS011;721;48.168;12.818;2022-07-29T10:42:27;2.00;;;1.90;;
1454;SDS011;721;48.168;12.818;2022-07-29T10:44:57;2.60;;;2.40;;
1454;SDS011;721;48.168;12.818;2022-07-29T10:47:24;1.77;;;1.67;;
1454;SDS011;721;48.168;12.818;2022-07-29T10:49:55;2.10;;;1.90;;
1454;SDS011;721;48.168;12.818;2022-07-29T10:52:24;1.50;;;1.40;;
1454;SDS011;721;48.168;12.818;2022-07-29T10:54:53;1.80;;;1.70;;
1454;SDS011;721;48.168;12.818;2022-07-29T10:57:24;2.53;;;2.33;;
1454;SDS011;721;48.168;12.818;2022-07-29T11:02:54;1.83;;;1.73;;
1454;SDS011;721;48.168;12.818;2022-07-29T11:05:23;1.73;;;1.63;;
1454;SDS011;721;48.168;12.818;2022-07-29T11:10:46;2.63;;;1.60;;
1454;SDS011;721;48.168;12.818;2022-07-29T11:16:16;2.00;;;1.90;;
1454;SDS011;721;48.168;12.818;2022-07-29T11:21:49;1.90;;;1.80;;
1454;SDS011;721;48.168;12.818;2022-07-29T11:24:17;1.70;;;1.47;;
1454;SDS011;721;48.168;12.818;2022-07-29T11:29:47;1.80;;;1.70;;
1454;SDS011;721;48.168;12.818;2022-07-29T11:32:17;1.70;;;1.60;;
1454;SDS011;721;48.168;12.818;2022-07-29T11:34:46;1.83;;;1.73;;
1454;SDS011;721;48.168;12.818;2022-07-29T11:37:20;2.87;;;2.20;;
1454;SDS011;721;48.168;12.818;2022-07-29T11:40:10;1.63;;;1.53;;
1454;SDS011;721;48.168;12.818;2022-07-29T11:42:44;2.10;;;2.00;;
1454;SDS011;721;48.168;12.818;2022-07-29T11:45:19;3.33;;;2.27;;
1454;SDS011;721;48.168;12.818;2022-07-29T11:47:48;1.90;;;1.80;;
1454;SDS011;721;48.168;12.818;2022-07-29T11:50:30;1.90;;;1.80;;
1454;SDS011;721;48.168;12.818;2022-07-29T11:53:00;2.03;;;1.93;;
1454;SDS011;721;48.168;12.818;2022-07-29T11:55:29;2.77;;;2.57;;
1454;SDS011;721;48.168;12.818;2022-07-29T11:58:00;1.77;;;1.67;;
1454;SDS011;721;48.168;12.818;2022-07-29T12:00:29;2.20;;;2.10;;
1454;SDS011;721;48.168;12.818;2022-07-29T12:02:57;2.60;;;2.40;;
1454;SDS011;721;48.168;12.818;2022-07-29T12:05:34;2.57;;;2.30;;
1454;SDS011;721;48.168;12.818;2022-07-29T12:08:12;5.10;;;2.60;;
1454;SDS011;721;48.168;12.818;2022-07-29T12:10:41;2.30;;;2.20;;
1454;SDS011;721;48.168;12.818;2022-07-29T12:13:09;2.40;;;2.20;;
1454;SDS011;721;48.168;12.818;2022-07-29T12:15:36;4.23;;;2.13;;
1454;SDS011;721;48.168;12.818;2022-07-29T12:18:10;3.87;;;2.60;;
1454;SDS011;721;48.168;12.818;2022-07-29T12:20:41;2.63;;;2.50;;
1454;SDS011;721;48.168;12.818;2022-07-29T12:23:09;2.87;;;2.67;;
1454;SDS011;721;48.168;12.818;2022-07-29T12:25:38;2.73;;;2.63;;
1454;SDS011;721;48.168;12.818;2022-07-29T12:28:08;6.30;;;2.90;;
1454;SDS011;721;48.168;12.818;2022-07-29T12:30:41;2.73;;;2.53;;
1454;SDS011;721;48.168;12.818;2022-07-29T12:33:14;3.90;;;2.83;;
1454;SDS011;721;48.168;12.818;2022-07-29T12:35:46;2.93;;;2.80;;
1454;SDS011;721;48.168;12.818;2022-07-29T12:38:16;2.80;;;2.60;;
1454;SDS011;721;48.168;12.818;2022-07-29T12:40:43;3.37;;;3.07;;
1454;SDS011;721;48.168;12.818;2022-07-29T12:43:14;8.40;;;2.70;;
1454;SDS011;721;48.168;12.818;2022-07-29T12:45:42;2.30;;;2.20;;
1454;SDS011;721;48.168;12.818;2022-07-29T12:48:11;2.73;;;2.53;;
1454;SDS011;721;48.168;12.818;2022-07-29T12:50:53;3.13;;;2.93;;
1454;SDS011;721;48.168;12.818;2022-07-29T12:53:21;3.07;;;2.87;;
1454;SDS011;721;48.168;12.818;2022-07-29T12:55:48;3.00;;;2.40;;
1454;SDS011;721;48.168;12.818;2022-07-29T12:58:30;3.70;;;3.40;;
1454;SDS011;721;48.168;12.818;2022-07-29T13:01:00;3.17;;;2.97;;
1454;SDS011;721;48.168;12.818;2022-07-29T13:03:48;5.30;;;3.80;;
1454;SDS011;721;48.168;12.818;2022-07-29T13:06:28;2.90;;;2.60;;
1454;SDS011;721;48.168;12.818;2022-07-29T13:09:00;3.33;;;2.23;;
1454;SDS011;721;48.168;12.818;2022-07-29T13:11:29;3.00;;;2.80;;
1454;SDS011;721;48.168;12.818;2022-07-29T13:13:57;3.03;;;2.73;;
1454;SDS011;721;48.168;12.818;2022-07-29T13:16:24;3.40;;;2.60;;
1454;SDS011;721;48.168;12.818;2022-07-29T13:19:02;3.13;;;2.30;;
1454;SDS011;721;48.168;12.818;2022-07-29T13:21:35;3.00;;;2.70;;
1454;SDS011;721;48.168;12.818;2022-07-29T13:24:04;2.43;;;2.23;;
1454;SDS011;721;48.168;12.818;2022-07-29T13:26:31;2.27;;;2.10;;
1454;SDS011;721;48.168;12.818;2022-07-29T13:28:58;2.30;;;2.20;;
1454;SDS011;721;48.168;12.818;2022-07-29T13:31:24;2.57;;;2.37;;
1454;SDS011;721;48.168;12.818;2022-07-29T13:33:51;4.90;;;3.10;;
1454;SDS011;721;48.168;12.818;2022-07-29T13:36:18;2.60;;;2.40;;
1454;SDS011;721;48.168;12.818;2022-07-29T13:38:46;1.90;;;1.60;;
1454;SDS011;721;48.168;12.818;2022-07-29T13:41:13;2.87;;;2.67;;
1454;SDS011;721;48.168;12.818;2022-07-29T13:43:40;2.73;;;2.03;;
1454;SDS011;721;48.168;12.818;2022-07-29T13:46:07;2.30;;;2.20;;
1454;SDS011;721;48.168;12.818;2022-07-29T13:48:34;3.80;;;2.93;;
1454;SDS011;721;48.168;12.818;2022-07-29T13:51:02;2.37;;;2.17;;
1454;SDS011;721;48.168;12.818;2022-07-29T13:53:29;2.13;;;2.03;;
1454;SDS011;721;48.168;12.818;2022-07-29T13:55:57;2.53;;;2.37;;
1454;SDS011;721;48.168;12.818;2022-07-29T13:58:24;2.70;;;2.50;;
1454;SDS011;721;48.168;12.818;2022-07-29T14:00:51;2.87;;;2.67;;
1454;SDS011;721;48.168;12.818;2022-07-29T14:03:18;7.00;;;2.83;;
1454;SDS011;721;48.168;12.818;2022-07-29T14:05:45;3.07;;;2.87;;
1454;SDS011;721;48.168;12.818;2022-07-29T14:08:12;3.57;;;2.60;;
1454;SDS011;721;48.168;12.818;2022-07-29T14:10:39;3.10;;;2.90;;
1454;SDS011;721;48.168;12.818;2022-07-29T14:13:07;2.93;;;2.50;;
1454;SDS011;721;48.168;12.818;2022-07-29T14:15:34;2.80;;;2.40;;
1454;SDS011;721;48.168;12.818;2022-07-29T14:18:01;2.53;;;2.33;;
1454;SDS011;721;48.168;12.818;2022-07-29T14:20:28;2.40;;;2.20;;
1454;SDS011;721;48.168;12.818;2022-07-29T14:22:55;3.10;;;2.90;;
1454;SDS011;721;48.168;12.818;2022-07-29T14:25:22;7.50;;;2.93;;
1454;SDS011;721;48.168;12.818;2022-07-29T14:27:49;2.53;;;2.33;;
1454;SDS011;721;48.168;12.818;2022-07-29T14:30:19;4.43;;;3.33;;
1454;SDS011;721;48.168;12.818;2022-07-29T14:32:46;2.70;;;2.50;;
1454;SDS011;721;48.168;12.818;2022-07-29T14:35:13;2.30;;;2.20;;
1454;SDS011;721;48.168;12.818;2022-07-29T14:37:40;2.67;;;2.53;;
1454;SDS011;721;48.168;12.818;2022-07-29T14:40:07;2.60;;;2.50;;
1454;SDS011;721;48.168;12.818;2022-07-29T14:42:34;2.27;;;2.17;;
1454;SDS011;721;48.168;12.818;2022-07-29T14:45:02;2.07;;;1.80;;
1454;SDS011;721;48.168;12.818;2022-07-29T14:47:31;3.33;;;2.10;;
1454;SDS011;721;48.168;12.818;2022-07-29T14:49:58;2.33;;;2.13;;
1454;SDS011;721;48.168;12.818;2022-07-29T14:52:25;2.03;;;1.80;;
1454;SDS011;721;48.168;12.818;2022-07-29T14:54:52;7.00;;;2.73;;
1454;SDS011;721;48.168;12.818;2022-07-29T14:57:19;2.60;;;2.40;;
1454;SDS011;721;48.168;12.818;2022-07-29T14:59:46;1.80;;;1.70;;
1454;SDS011;721;48.168;12.818;2022-07-29T15:02:12;2.87;;;2.67;;
1454;SDS011;721;48.168;12.818;2022-07-29T15:04:40;3.30;;;2.03;;
1454;SDS011;721;48.168;12.818;2022-07-29T15:07:07;5.50;;;2.00;;
1454;SDS011;721;48.168;12.818;2022-07-29T15:09:34;2.90;;;2.60;;
1454;SDS011;721;48.168;12.818;2022-07-29T15:12:01;4.43;;;2.10;;
1454;SDS011;721;48.168;12.818;2022-07-29T15:14:29;3.80;;;2.77;;
1454;SDS011;721;48.168;12.818;2022-07-29T15:16:56;6.73;;;2.40;;
1454;SDS011;721;48.168;12.818;2022-07-29T15:19:23;2.97;;;2.00;;
1454;SDS011;721;48.168;12.818;2022-07-29T15:21:51;2.47;;;2.27;;
1454;SDS011;721;48.168;12.818;2022-07-29T15:24:18;4.10;;;2.93;;
1454;SDS011;721;48.168;12.818;2022-07-29T15:26:46;2.37;;;2.17;;
1454;SDS011;721;48.168;12.818;2022-07-29T15:29:13;2.97;;;2.77;;
1454;SDS011;721;48.168;12.818;2022-07-29T15:31:41;5.10;;;3.20;;
1454;SDS011;721;48.168;12.818;2022-07-29T15:34:08;2.50;;;2.30;;
1454;SDS011;721;48.168;12.818;2022-07-29T15:36:35;3.67;;;2.30;;
1454;SDS011;721;48.168;12.818;2022-07-29T15:39:03;2.47;;;2.37;;